Time;durP1;ratioP1;P1;durP2;ratioP2;P2;SDS_P1;SDS_P2;PMS_P1;PMS_P2;Temp;Humidity;BMP_temperature;BMP_pressure;BME280_temperature;BME280_humidity;BME280_pressure;Samples;Min_cycle;Max_cycle;Signal;HPM_P1;HPM_P2
2021/06/05 00:00:44;;;;;;;7.13;4.00;;;;;;;21.94;62.39;100624.97;2081910;28;20412;-51
2021/06/05 00:01:51;;;;;;;4.55;3.92;;;;;;;21.94;62.60;100627.69;2081527;28;20029;-49
2021/06/05 00:02:52;;;;;;;4.80;4.28;;;;;;;21.94;62.74;100627.69;2080593;28;20065;-53
2021/06/05 00:03:54;;;;;;;5.35;3.75;;;;;;;21.94;62.47;100630.44;2082410;28;20025;-49
2021/06/05 00:04:59;;;;;;;5.30;4.35;;;;;;;21.94;62.44;100627.69;2080532;28;20029;-50
2021/06/05 00:06:01;;;;;;;5.32;4.07;;;;;;;21.94;62.33;100624.97;2081580;28;20029;-51
2021/06/05 00:07:01;;;;;;;5.55;4.47;;;;;;;21.93;62.73;100618.63;2081883;28;20025;-50
2021/06/05 00:08:02;;;;;;;4.43;3.87;;;;;;;21.93;62.44;100617.75;2082786;28;20039;-52
2021/06/05 00:09:06;;;;;;;5.18;4.30;;;;;;;21.95;62.62;100618.44;2081933;28;20036;-53
2021/06/05 00:10:10;;;;;;;4.75;4.25;;;;;;;21.94;62.65;100627.69;2081031;28;20021;-51
2021/06/05 00:11:11;;;;;;;3.97;3.58;;;;;;;21.93;62.38;100612.25;2080481;28;20032;-53
2021/06/05 00:12:14;;;;;;;4.88;4.03;;;;;;;21.93;62.26;100612.25;2082155;28;20075;-51
2021/06/05 00:13:37;;;;;;;4.57;3.63;;;;;;;21.92;62.38;100605.88;2080742;28;20218;-52
2021/06/05 00:14:37;;;;;;;;;;;;;;;21.86;62.72;100605.66;2081908;28;20025;-51
2021/06/05 00:15:40;;;;;;;4.50;3.78;;;;;;;21.88;62.83;100609.97;2081560;28;20395;-49
2021/06/05 00:16:47;;;;;;;4.32;3.92;;;;;;;21.89;62.63;100600.72;2080748;28;20202;-50
2021/06/05 00:17:48;;;;;;;4.55;3.92;;;;;;;21.88;62.73;100601.75;2081897;28;20030;-52
2021/06/05 00:18:49;;;;;;;4.03;3.60;;;;;;;21.90;62.71;100602.47;2081748;28;20025;-52
2021/06/05 00:19:49;;;;;;;3.90;3.37;;;;;;;21.89;62.75;100597.13;2083260;28;20040;-51
2021/06/05 00:20:50;;;;;;;4.23;3.63;;;;;;;21.91;62.36;100603.31;2080620;28;20036;-52
2021/06/05 00:21:51;;;;;;;4.07;3.67;;;;;;;21.91;62.74;100598.69;2081624;28;20025;-53
2021/06/05 00:22:51;;;;;;;4.03;3.63;;;;;;;21.92;62.63;100605.03;2082177;28;20211;-52
2021/06/05 00:23:52;;;;;;;4.63;4.10;;;;;;;21.91;62.36;100597.81;2080474;28;20072;-51
2021/06/05 00:24:53;;;;;;;4.15;3.70;;;;;;;21.90;62.60;100596.97;2088801;28;20092;-52
2021/06/05 00:25:55;;;;;;;4.33;3.57;;;;;;;21.90;62.43;100601.56;2080369;28;20029;-49
2021/06/05 00:26:56;;;;;;;4.93;3.75;;;;;;;21.90;62.36;100602.47;2081179;28;20112;-49
2021/06/05 00:27:57;;;;;;;5.73;5.00;;;;;;;21.90;62.50;100602.47;2082104;28;20025;-52
2021/06/05 00:28:57;;;;;;;4.33;3.67;;;;;;;21.91;62.50;100604.19;2077077;28;20049;-49
2021/06/05 00:29:58;;;;;;;4.97;3.67;;;;;;;21.89;62.33;100605.34;2081476;28;20021;-48
2021/06/05 00:30:59;;;;;;;4.37;3.97;;;;;;;21.90;62.44;100601.56;2076838;28;20026;-53
2021/06/05 00:32:00;;;;;;;4.30;3.90;;;;;;;21.91;62.42;100597.81;2076466;28;20029;-50
2021/06/05 00:33:01;;;;;;;3.90;3.50;;;;;;;21.92;62.27;100605.03;2082730;28;20079;-52
2021/06/05 00:34:02;;;;;;;4.10;3.17;;;;;;;21.91;62.55;100604.19;2082600;28;20028;-50
2021/06/05 00:35:04;;;;;;;4.28;3.50;;;;;;;21.90;62.63;100602.47;2081633;28;20064;-52
2021/06/05 00:36:11;;;;;;;4.90;3.88;;;;;;;21.90;62.56;100607.94;2080806;28;20044;-49
2021/06/05 00:37:11;;;;;;;3.80;3.45;;;;;;;21.91;62.63;100608.81;2081345;28;20033;-50
2021/06/05 00:38:12;;;;;;;4.17;3.63;;;;;;;21.90;62.22;100601.56;2081427;28;20033;-50
2021/06/05 00:39:13;;;;;;;5.53;3.90;;;;;;;21.90;62.45;100601.56;2080153;28;20116;-52
2021/06/05 00:40:15;;;;;;;4.03;3.50;;;;;;;21.90;62.33;100607.06;2081340;28;20032;-52
2021/06/05 00:41:18;;;;;;;6.72;3.60;;;;;;;21.90;62.52;100601.56;2081260;28;20439;-50
2021/06/05 00:42:18;;;;;;;4.53;3.45;;;;;;;21.90;62.60;100599.72;2078749;28;20029;-52
2021/06/05 00:43:23;;;;;;;5.60;3.90;;;;;;;21.90;62.62;100601.56;2082053;28;20028;-51
2021/06/05 00:44:23;;;;;;;3.63;3.30;;;;;;;21.90;62.51;100602.47;2081004;28;20032;-52
2021/06/05 00:45:28;;;;;;;4.27;3.43;;;;;;;21.90;62.21;100601.56;2081474;28;20105;-51
2021/06/05 00:46:30;;;;;;;5.25;3.78;;;;;;;21.89;62.13;100606.22;2080112;28;20384;-53
2021/06/05 00:47:31;;;;;;;4.10;3.70;;;;;;;21.91;62.36;100604.19;2081445;28;20344;-53
2021/06/05 00:48:31;;;;;;;3.50;3.20;;;;;;;21.89;62.25;100603.47;2081419;28;20100;-52
2021/06/05 00:49:32;;;;;;;4.97;3.93;;;;;;;21.91;62.36;100608.81;2081730;28;20557;-49
2021/06/05 00:50:33;;;;;;;4.50;4.10;;;;;;;21.91;62.37;100603.31;2079689;28;20033;-51
2021/06/05 00:51:38;;;;;;;4.78;4.32;;;;;;;21.89;62.46;100600.72;2080496;28;20029;-48
2021/06/05 00:52:41;;;;;;;4.63;3.80;;;;;;;21.89;62.25;100600.72;2080589;28;20029;-52
2021/06/05 00:53:42;;;;;;;4.03;3.50;;;;;;;21.90;62.22;100601.56;2082979;28;20028;-49
2021/06/05 00:54:42;;;;;;;4.07;3.60;;;;;;;21.90;62.41;100607.06;2072608;28;20056;-51
2021/06/05 00:55:47;;;;;;;3.93;3.53;;;;;;;21.90;62.40;100607.06;2071797;28;20033;-52
2021/06/05 00:56:57;;;;;;;4.43;3.40;;;;;;;21.88;62.49;100607.25;2081605;28;20112;-52
2021/06/05 00:57:57;;;;;;;5.53;4.03;;;;;;;21.89;62.33;100602.59;2079985;28;20379;-52
2021/06/05 00:58:58;;;;;;;4.20;3.80;;;;;;;21.89;62.16;100602.59;2081063;28;20079;-52
2021/06/05 00:59:58;;;;;;;5.43;3.80;;;;;;;21.89;62.28;100600.72;2077543;28;20033;-52
2021/06/05 01:01:22;;;;;;;4.63;4.13;;;;;;;21.88;62.46;100598.13;2080667;28;20033;-51
2021/06/05 01:02:23;;;;;;;4.50;3.17;;;;;;;21.88;62.50;100598.13;2080076;28;20124;-52
2021/06/05 01:03:24;;;;;;;7.23;3.50;;;;;;;21.89;62.42;100599.88;2085388;28;20029;-49
2021/06/05 01:04:25;;;;;;;4.30;3.35;;;;;;;21.89;62.49;100597.13;2081080;28;20024;-52
2021/06/05 01:05:26;;;;;;;4.20;3.70;;;;;;;21.89;62.13;100599.88;2081116;28;20072;-52
2021/06/05 01:06:26;;;;;;;4.00;3.60;;;;;;;21.89;62.36;100589.75;2080400;28;20025;-49
2021/06/05 01:07:31;;;;;;;3.47;3.10;;;;;;;21.89;62.10;100588.88;2081132;28;20260;-53
2021/06/05 01:08:47;;;;;;;3.88;3.15;;;;;;;21.87;62.10;100591.78;2081497;28;20052;-51
2021/06/05 01:09:58;;;;;;;4.20;3.80;;;;;;;21.88;62.38;100589.88;2082278;28;20017;-50
2021/06/05 01:11:07;;;;;;;4.03;3.28;;;;;;;21.87;62.24;100589.03;2075911;28;20029;-51
2021/06/05 01:12:16;;;;;;;3.85;3.50;;;;;;;21.87;62.42;100594.53;2081080;28;20091;-50
2021/06/05 01:13:22;;;;;;;4.50;4.10;;;;;;;21.87;62.25;100590.91;2081245;28;20526;-49
2021/06/05 01:14:51;;;;;;;4.28;3.88;;;;;;;21.87;62.26;100593.66;2084132;28;20040;-50
2021/06/05 01:16:05;;;;;;;3.90;3.50;;;;;;;21.85;62.08;100596.56;2080687;28;20112;-53
2021/06/05 01:17:11;;;;;;;5.18;4.35;;;;;;;21.84;62.27;100592.94;2081009;28;20033;-51
2021/06/05 01:18:22;;;;;;;3.90;3.42;;;;;;;21.86;62.19;100594.69;2080680;28;20990;-50
2021/06/05 01:19:36;;;;;;;3.72;3.40;;;;;;;21.86;62.48;100591.94;2079314;28;20194;-51
2021/06/05 01:20:48;;;;;;;4.15;3.75;;;;;;;21.84;62.17;100592.94;2074424;28;20028;-52
2021/06/05 01:22:17;;;;;;;3.55;3.25;;;;;;;21.84;62.36;100594.84;2074700;28;20029;-52
2021/06/05 01:23:27;;;;;;;3.80;3.40;;;;;;;21.83;62.47;100591.25;2074951;28;20037;-52
2021/06/05 01:24:47;;;;;;;4.03;3.63;;;;;;;21.82;62.47;100600.47;2081165;28;20025;-52
2021/06/05 01:26:11;;;;;;;4.00;3.58;;;;;;;21.82;62.33;100594.97;2078924;28;20033;-52
2021/06/05 01:27:18;;;;;;;4.30;3.78;;;;;;;21.83;62.33;100599.47;2081148;28;20053;-50
2021/06/05 01:28:25;;;;;;;4.05;3.67;;;;;;;21.83;62.43;100593.97;2080949;28;20039;-51
2021/06/05 01:29:31;;;;;;;5.25;3.63;;;;;;;21.83;62.59;100598.63;2077335;28;20324;-52
2021/06/05 01:30:39;;;;;;;3.78;3.47;;;;;;;21.83;62.18;100602.22;2081301;28;20021;-52
2021/06/05 01:31:48;;;;;;;3.70;3.33;;;;;;;21.83;62.42;100602.22;2081371;28;20028;-51
2021/06/05 01:32:49;;;;;;;3.55;3.25;;;;;;;21.84;62.46;100594.84;2078015;28;20026;-51
2021/06/05 01:33:50;;;;;;;5.25;3.50;;;;;;;21.84;62.45;100595.69;2082528;28;20029;-52
2021/06/05 01:34:54;;;;;;;3.28;2.97;;;;;;;21.83;62.16;100596.72;2078335;28;20037;-51
2021/06/05 01:35:55;;;;;;;3.67;3.25;;;;;;;21.86;62.31;100597.44;2084774;28;20029;-52
2021/06/05 01:36:56;;;;;;;3.67;3.27;;;;;;;21.84;62.29;100592.94;2080852;28;20021;-51
2021/06/05 01:37:58;;;;;;;3.60;2.97;;;;;;;21.85;62.21;100593.81;2082071;28;20033;-51
2021/06/05 01:39:05;;;;;;;4.15;3.10;;;;;;;21.84;62.11;100592.94;2079141;28;20032;-52
2021/06/05 01:40:07;;;;;;;6.38;4.07;;;;;;;21.83;62.05;100596.72;2080839;28;20061;-49
2021/06/05 01:41:08;;;;;;;;;;;;;;;21.80;62.46;100596.16;2081787;28;20304;-53
2021/06/05 01:42:13;;;;;;;6.75;3.35;;;;;;;21.81;62.42;100607.00;2078900;28;19970;-51
2021/06/05 01:43:17;;;;;;;3.50;3.20;;;;;;;21.82;62.40;100597.72;2080608;28;20120;-50
2021/06/05 01:44:19;;;;;;;4.05;3.65;;;;;;;21.83;62.42;100588.50;2079631;28;20031;-52
2021/06/05 01:45:21;;;;;;;;;;;;;;;21.78;62.42;100593.59;2081890;28;20029;-50
2021/06/05 01:46:38;;;;;;;5.47;3.33;;;;;;;21.79;62.25;100595.31;2078630;28;19926;-53
2021/06/05 01:47:38;;;;;;;4.03;3.63;;;;;;;21.80;62.37;100594.31;2081547;28;20033;-52
2021/06/05 01:48:39;;;;;;;3.80;3.30;;;;;;;21.81;62.35;100593.28;2079405;28;20061;-49
2021/06/05 01:49:41;;;;;;;4.07;3.57;;;;;;;21.81;62.50;100593.28;2081352;28;20049;-52
2021/06/05 01:50:44;;;;;;;4.25;3.53;;;;;;;21.82;62.32;100589.50;2079869;28;20034;-52
2021/06/05 01:51:50;;;;;;;4.28;3.70;;;;;;;21.82;62.40;100594.97;2080771;28;20029;-53
2021/06/05 01:52:53;;;;;;;3.55;3.25;;;;;;;21.82;62.28;100586.75;2080163;28;20037;-51
2021/06/05 01:53:58;;;;;;;4.47;3.90;;;;;;;21.82;62.42;100585.88;2080060;28;20125;-52
2021/06/05 01:55:18;;;;;;;3.53;3.22;;;;;;;21.82;62.37;100589.50;2081059;28;20037;-50
2021/06/05 01:56:27;;;;;;;4.40;3.35;;;;;;;21.82;62.19;100589.50;2078157;28;20587;-50
2021/06/05 01:57:32;;;;;;;4.13;3.42;;;;;;;21.81;62.16;100587.78;2079678;28;20057;-52
2021/06/05 01:58:34;;;;;;;3.90;3.33;;;;;;;21.82;62.48;100591.38;2086048;28;20119;-51
2021/06/05 01:59:35;;;;;;;4.30;3.55;;;;;;;21.82;62.42;100589.50;2080826;28;20029;-51
2021/06/05 02:00:38;;;;;;;3.67;3.00;;;;;;;21.82;62.07;100594.13;2067972;28;20032;-50
2021/06/05 02:01:39;;;;;;;4.53;3.30;;;;;;;21.82;62.37;100592.25;2069813;28;20112;-50
2021/06/05 02:02:39;;;;;;;4.60;3.27;;;;;;;21.82;62.13;100589.50;2078837;28;20443;-49
2021/06/05 02:03:41;;;;;;;3.57;3.00;;;;;;;21.82;62.29;100589.50;2081251;28;20029;-51
2021/06/05 02:04:42;;;;;;;;;;;;;;;21.77;62.27;100589.09;2075768;28;20060;-51
2021/06/05 02:05:43;;;;;;;5.03;3.78;;;;;;;21.79;62.50;100589.81;2080697;28;20312;-52
2021/06/05 02:06:46;;;;;;;4.18;3.55;;;;;;;21.80;62.56;100586.06;2079934;28;20091;-49
2021/06/05 02:07:46;;;;;;;3.28;2.97;;;;;;;21.79;62.27;100584.31;2080529;28;20036;-51
2021/06/05 02:08:47;;;;;;;4.03;3.43;;;;;;;21.80;62.23;100586.06;2080649;28;20048;-50
2021/06/05 02:09:51;;;;;;;4.70;3.07;;;;;;;21.81;62.12;100587.78;2081571;28;20470;-52
2021/06/05 02:10:55;;;;;;;3.65;3.28;;;;;;;21.81;62.28;100586.94;2080487;28;20384;-49
2021/06/05 02:12:04;;;;;;;5.03;3.10;;;;;;;21.80;62.28;100591.56;2079620;28;20040;-52
2021/06/05 02:13:10;;;;;;;4.45;3.58;;;;;;;21.82;62.19;100594.13;2072214;28;20283;-52
2021/06/05 02:14:14;;;;;;;3.67;3.38;;;;;;;21.81;62.36;100590.53;2070222;28;20033;-51
2021/06/05 02:15:35;;;;;;;4.22;3.38;;;;;;;21.79;62.43;100595.31;2080008;28;20072;-51
2021/06/05 02:16:41;;;;;;;4.63;3.38;;;;;;;21.80;62.10;100601.66;2073496;28;20040;-52
2021/06/05 02:17:42;;;;;;;4.45;3.03;;;;;;;21.80;62.10;100597.03;2079956;28;20021;-49
2021/06/05 02:18:52;;;;;;;4.22;3.13;;;;;;;21.80;62.53;100597.03;2082233;28;20398;-51
2021/06/05 02:20:00;;;;;;;3.33;3.03;;;;;;;21.80;62.10;100594.31;2084568;28;20041;-50
2021/06/05 02:21:09;;;;;;;3.70;3.30;;;;;;;21.80;62.24;100596.16;2082750;28;20305;-50
2021/06/05 02:22:15;;;;;;;3.80;3.08;;;;;;;21.80;62.16;100591.56;2081021;28;20136;-50
2021/06/05 02:23:21;;;;;;;4.13;3.08;;;;;;;21.80;62.31;100588.81;2081450;28;20043;-52
2021/06/05 02:24:26;;;;;;;3.55;3.20;;;;;;;21.79;62.14;100583.47;2080345;28;20444;-50
2021/06/05 02:25:27;;;;;;;3.15;2.85;;;;;;;21.80;62.10;100586.06;2079080;28;20596;-52
2021/06/05 02:26:28;;;;;;;3.95;3.25;;;;;;;21.80;62.26;100586.06;2081401;28;20053;-52
2021/06/05 02:27:30;;;;;;;4.00;3.20;;;;;;;21.79;62.45;100587.06;2081997;28;20167;-51
2021/06/05 02:28:32;;;;;;;;;;;;;;;21.75;62.59;100585.66;2083296;28;20120;-51
2021/06/05 02:29:36;;;;;;;4.55;3.40;;;;;;;21.77;62.26;100591.84;2081001;28;19917;-51
2021/06/05 02:30:36;;;;;;;3.45;3.10;;;;;;;21.78;62.39;100585.34;2076692;28;20033;-53
2021/06/05 02:31:39;;;;;;;3.60;3.30;;;;;;;21.79;62.49;100586.22;2078645;28;20057;-52
2021/06/05 02:32:40;;;;;;;3.90;3.50;;;;;;;21.78;62.27;100582.63;2078899;28;20601;-50
2021/06/05 02:33:41;;;;;;;3.35;3.05;;;;;;;21.80;62.05;100586.06;2082249;28;20023;-51
2021/06/05 02:34:43;;;;;;;;;;;;;;;21.75;62.27;100579.31;2083046;28;20092;-49
2021/06/05 02:35:45;;;;;;;3.30;3.00;;;;;;;21.76;62.46;100576.41;2081691;28;19909;-51
2021/06/05 02:36:50;;;;;;;3.65;3.35;;;;;;;21.77;62.38;100582.75;2073588;28;20030;-50
2021/06/05 02:37:50;;;;;;;3.85;3.45;;;;;;;21.77;62.21;100574.53;2071033;28;20157;-53
2021/06/05 02:38:53;;;;;;;4.00;3.20;;;;;;;21.78;62.40;100574.38;2083022;28;20325;-52
2021/06/05 02:40:00;;;;;;;4.18;3.13;;;;;;;21.77;62.46;100575.38;2084064;28;20057;-52
2021/06/05 02:41:03;;;;;;;4.00;3.08;;;;;;;21.78;62.18;100588.09;2071697;28;20052;-53
2021/06/05 02:42:09;;;;;;;3.40;3.10;;;;;;;21.78;62.22;100574.38;2072695;28;20049;-53
2021/06/05 02:43:14;;;;;;;3.97;3.13;;;;;;;21.78;62.44;100577.13;2082116;28;20542;-49
2021/06/05 02:44:16;;;;;;;3.42;2.90;;;;;;;21.78;61.95;100574.38;2082656;28;20120;-50
2021/06/05 02:45:27;;;;;;;4.20;3.80;;;;;;;21.78;62.46;100570.78;2079953;28;20035;-52
2021/06/05 02:46:34;;;;;;;3.40;3.08;;;;;;;21.77;62.41;100572.63;2082266;28;20028;-50
2021/06/05 02:47:34;;;;;;;3.80;3.08;;;;;;;21.78;62.22;100571.63;2082859;28;20023;-53
2021/06/05 02:49:06;;;;;;;3.30;2.90;;;;;;;21.75;62.42;100577.41;2080230;28;20487;-52
2021/06/05 02:50:08;;;;;;;4.35;3.30;;;;;;;21.77;62.40;100580.88;2076364;28;20499;-50
2021/06/05 02:51:09;;;;;;;4.65;2.90;;;;;;;21.78;62.33;100576.28;2082397;28;20025;-51
2021/06/05 02:52:31;;;;;;;4.00;3.00;;;;;;;21.77;62.42;100572.63;2080715;28;20436;-52
2021/06/05 02:53:32;;;;;;;3.92;3.10;;;;;;;21.77;62.12;100575.38;2078580;28;20048;-51
2021/06/05 02:54:33;;;;;;;3.10;2.77;;;;;;;21.77;62.51;100575.38;2087243;28;20035;-52
2021/06/05 02:55:34;;;;;;;3.23;2.93;;;;;;;21.78;62.25;100573.53;2082724;28;20017;-52
2021/06/05 02:56:35;;;;;;;3.65;3.25;;;;;;;21.77;62.27;100580.88;2082025;28;20056;-52
2021/06/05 02:57:36;;;;;;;3.50;3.13;;;;;;;21.77;62.12;100569.91;2082263;28;20032;-51
2021/06/05 02:58:38;;;;;;;4.00;2.95;;;;;;;21.77;62.21;100575.38;2081894;28;20021;-52
2021/06/05 02:59:38;;;;;;;3.08;2.78;;;;;;;21.78;61.94;100574.38;2082136;28;20036;-52
2021/06/05 03:00:42;;;;;;;3.40;3.10;;;;;;;21.79;62.18;100575.22;2079498;28;20025;-52
2021/06/05 03:01:43;;;;;;;3.42;3.03;;;;;;;21.78;62.33;100571.63;2082190;28;20070;-49
2021/06/05 03:02:43;;;;;;;3.63;3.13;;;;;;;21.77;62.05;100569.91;2081047;28;20021;-49
2021/06/05 03:03:44;;;;;;;3.33;3.00;;;;;;;21.79;61.96;100576.09;2080029;28;20316;-51
2021/06/05 03:04:45;;;;;;;3.55;2.78;;;;;;;21.79;62.26;100578.84;2082761;28;20021;-52
2021/06/05 03:05:46;;;;;;;3.57;3.17;;;;;;;21.78;62.06;100577.13;2079562;28;20057;-52
2021/06/05 03:06:47;;;;;;;3.45;3.10;;;;;;;21.79;62.14;100575.22;2077122;28;20026;-52
2021/06/05 03:07:47;;;;;;;3.55;2.83;;;;;;;21.78;62.36;100577.13;2079308;28;20033;-52
2021/06/05 03:08:48;;;;;;;4.13;3.30;;;;;;;21.78;62.18;100577.13;2078822;28;20103;-51
2021/06/05 03:09:49;;;;;;;4.65;3.25;;;;;;;21.78;62.14;100577.13;2082162;28;20033;-53
2021/06/05 03:10:49;;;;;;;3.83;3.27;;;;;;;21.79;62.01;100578.84;2081478;28;20067;-52
2021/06/05 03:11:51;;;;;;;3.20;2.73;;;;;;;21.79;62.29;100583.47;2081809;28;20021;-53
2021/06/05 03:12:52;;;;;;;3.35;3.00;;;;;;;21.78;62.22;100585.34;2081578;28;20136;-54
2021/06/05 03:13:52;;;;;;;3.28;2.97;;;;;;;21.77;62.36;100580.88;2082278;28;20032;-51
2021/06/05 03:14:53;;;;;;;3.50;3.07;;;;;;;21.78;62.10;100582.63;2081204;28;20454;-53
2021/06/05 03:15:54;;;;;;;3.70;3.30;;;;;;;21.78;62.07;100582.63;2081911;28;20032;-52
2021/06/05 03:16:54;;;;;;;3.40;3.10;;;;;;;21.77;62.02;100580.88;2080196;28;20029;-52
2021/06/05 03:17:56;;;;;;;3.77;3.30;;;;;;;21.78;61.98;100585.34;2073086;28;20287;-53
2021/06/05 03:18:56;;;;;;;3.85;3.05;;;;;;;21.78;62.17;100582.63;2072948;28;20025;-52
2021/06/05 03:19:57;;;;;;;3.67;3.20;;;;;;;21.78;61.92;100577.13;2073671;28;20041;-53
2021/06/05 03:20:58;;;;;;;4.13;3.43;;;;;;;21.78;62.48;100577.13;2072573;28;20025;-51
2021/06/05 03:21:58;;;;;;;3.60;3.30;;;;;;;21.78;62.32;100579.00;2079760;28;20415;-53
2021/06/05 03:22:59;;;;;;;3.23;2.93;;;;;;;21.77;61.99;100578.13;2082264;28;20033;-53
2021/06/05 03:24:00;;;;;;;4.77;3.00;;;;;;;21.79;62.32;100584.31;2080838;28;20451;-52
2021/06/05 03:25:00;;;;;;;3.50;3.20;;;;;;;21.79;62.17;100583.47;2083969;28;20328;-53
2021/06/05 03:26:03;;;;;;;5.13;2.53;;;;;;;21.77;62.16;100578.13;2081736;28;20037;-51
2021/06/05 03:27:04;;;;;;;3.67;3.28;;;;;;;21.78;61.96;100577.13;2082437;28;20051;-52
2021/06/05 03:28:06;;;;;;;3.25;2.83;;;;;;;21.78;62.34;100574.38;2081635;28;20413;-53
2021/06/05 03:29:06;;;;;;;;;;;;;;;21.72;62.30;100576.88;2081659;28;20033;-53
2021/06/05 03:30:09;;;;;;;3.00;2.70;;;;;;;21.74;62.39;100572.09;2087190;28;19913;-50
2021/06/05 03:31:10;;;;;;;2.92;2.63;;;;;;;21.74;62.20;100580.34;2079087;28;20017;-52
2021/06/05 03:32:11;;;;;;;3.13;2.78;;;;;;;21.75;62.30;100573.81;2081642;28;20049;-53
2021/06/05 03:33:12;;;;;;;3.63;2.97;;;;;;;21.75;62.19;100571.94;2084833;28;20482;-53
2021/06/05 03:34:12;;;;;;;3.73;2.90;;;;;;;21.75;62.26;100580.16;2081983;28;20040;-50
2021/06/05 03:35:13;;;;;;;5.60;2.97;;;;;;;21.76;62.37;100579.16;2081905;28;20586;-50
2021/06/05 03:36:14;;;;;;;4.03;3.42;;;;;;;21.76;61.96;100579.16;2080878;28;20026;-51
2021/06/05 03:37:15;;;;;;;3.13;2.83;;;;;;;21.76;62.12;100576.41;2082460;28;20025;-50
2021/06/05 03:38:17;;;;;;;3.27;2.97;;;;;;;21.76;62.38;100578.31;2081290;28;20033;-53
2021/06/05 03:39:18;;;;;;;;;;;;;;;21.72;62.23;100588.72;2081771;28;20033;-53
2021/06/05 03:40:23;;;;;;;2.65;2.35;;;;;;;21.73;62.31;100584.97;2081930;28;19920;-52
2021/06/05 03:41:23;;;;;;;3.20;2.67;;;;;;;21.73;62.28;100584.97;2079112;28;20029;-50
2021/06/05 03:42:24;;;;;;;3.80;3.20;;;;;;;21.73;62.44;100582.22;2082456;28;21056;-52
2021/06/05 03:43:25;;;;;;;3.30;2.90;;;;;;;21.74;62.46;100583.06;2082090;28;20129;-52
2021/06/05 03:44:25;;;;;;;2.85;2.55;;;;;;;21.75;62.14;100588.38;2080470;28;20375;-50
2021/06/05 03:45:27;;;;;;;4.43;2.83;;;;;;;21.74;62.24;100592.16;2072758;28;20049;-53
2021/06/05 03:46:28;;;;;;;3.47;2.85;;;;;;;21.75;62.23;100585.66;2073351;28;20037;-50
2021/06/05 03:47:28;;;;;;;5.13;2.70;;;;;;;21.75;62.20;100580.16;2082435;28;20097;-53
2021/06/05 03:48:29;;;;;;;3.23;2.70;;;;;;;21.75;62.28;100582.91;2081683;28;20356;-51
2021/06/05 03:49:29;;;;;;;4.73;3.30;;;;;;;21.75;62.28;100577.41;2080899;28;20023;-51
2021/06/05 03:50:34;;;;;;;3.57;2.93;;;;;;;21.77;62.01;100588.25;2081814;28;20091;-52
2021/06/05 03:51:35;;;;;;;3.33;2.88;;;;;;;21.75;62.33;100588.38;2078083;28;20026;-51
2021/06/05 03:52:36;;;;;;;3.28;2.70;;;;;;;21.76;62.28;100595.63;2082372;28;20026;-53
2021/06/05 03:53:37;;;;;;;3.20;2.90;;;;;;;21.75;62.21;100593.88;2081329;28;20035;-53
2021/06/05 03:54:37;;;;;;;3.15;2.83;;;;;;;21.75;62.49;100602.09;2080369;28;20128;-55
2021/06/05 03:55:38;;;;;;;2.90;2.60;;;;;;;21.75;62.06;100588.38;2081838;28;20055;-50
2021/06/05 03:56:38;;;;;;;4.37;3.00;;;;;;;21.75;62.21;100593.88;2080646;28;20040;-52
2021/06/05 03:57:39;;;;;;;3.20;2.87;;;;;;;21.74;62.27;100592.16;2082148;28;20052;-52
2021/06/05 03:58:42;;;;;;;3.07;2.57;;;;;;;21.74;62.02;100600.41;2072313;28;20024;-50
2021/06/05 03:59:42;;;;;;;3.53;2.72;;;;;;;21.75;62.23;100596.63;2072917;28;20053;-52
2021/06/05 04:00:45;;;;;;;3.27;2.97;;;;;;;21.76;62.00;100601.09;2082074;28;20036;-51
2021/06/05 04:01:46;;;;;;;3.83;2.97;;;;;;;21.75;62.29;100599.38;2077799;28;20032;-53
2021/06/05 04:02:46;;;;;;;3.15;2.83;;;;;;;21.75;62.05;100599.38;2082558;28;20033;-54
2021/06/05 04:03:47;;;;;;;3.17;2.70;;;;;;;21.74;62.13;100594.91;2079039;28;20030;-53
2021/06/05 04:04:48;;;;;;;3.77;2.63;;;;;;;21.74;62.22;100597.66;2080932;28;20017;-52
2021/06/05 04:05:50;;;;;;;2.75;2.55;;;;;;;21.73;61.97;100593.19;2081101;28;20029;-53
2021/06/05 04:06:51;;;;;;;3.55;2.78;;;;;;;21.74;61.96;100594.91;2081213;28;20029;-51
2021/06/05 04:07:52;;;;;;;3.63;2.80;;;;;;;21.74;62.36;100592.16;2082233;28;20021;-51
2021/06/05 04:08:55;;;;;;;3.17;2.67;;;;;;;21.73;62.21;100584.97;2080148;28;20033;-55
2021/06/05 04:09:56;;;;;;;3.13;2.65;;;;;;;21.73;62.27;100584.97;2082008;28;20128;-53
2021/06/05 04:10:56;;;;;;;3.60;3.30;;;;;;;21.74;62.21;100585.81;2081171;28;20091;-50
2021/06/05 04:11:57;;;;;;;3.10;2.80;;;;;;;21.75;61.95;100588.38;2070509;28;20147;-53
2021/06/05 04:12:58;;;;;;;3.43;3.13;;;;;;;21.74;62.22;100583.94;2079177;28;20029;-51
2021/06/05 04:14:01;;;;;;;4.63;2.60;;;;;;;21.73;62.04;100584.97;2077983;28;20025;-52
2021/06/05 04:15:04;;;;;;;3.38;3.08;;;;;;;21.73;62.33;100584.97;2080666;28;20033;-52
2021/06/05 04:16:05;;;;;;;4.07;3.00;;;;;;;21.74;62.23;100581.19;2081415;28;20029;-53
2021/06/05 04:17:09;;;;;;;3.97;3.20;;;;;;;21.75;62.15;100582.91;2081478;28;20025;-53
2021/06/05 04:18:34;;;;;;;2.88;2.58;;;;;;;21.72;62.22;100593.34;2082259;28;20264;-52
2021/06/05 04:19:35;;;;;;;5.15;3.15;;;;;;;21.72;62.31;100587.84;2085938;28;20036;-52
2021/06/05 04:20:37;;;;;;;;;;;;;;;21.68;62.34;100575.44;2083765;28;20025;-52
2021/06/05 04:21:37;;;;;;;3.35;3.05;;;;;;;21.68;62.21;100583.69;2081931;28;20416;-51
2021/06/05 04:22:38;;;;;;;3.20;2.90;;;;;;;21.70;62.44;100587.13;2082552;28;20091;-53
2021/06/05 04:23:38;;;;;;;3.17;2.63;;;;;;;21.69;62.29;100589.03;2085258;28;20022;-52
2021/06/05 04:24:39;;;;;;;3.07;2.60;;;;;;;21.71;62.10;100589.75;2074459;28;20049;-52
2021/06/05 04:25:40;;;;;;;4.90;2.80;;;;;;;21.72;62.42;100594.19;2073985;28;20038;-52
2021/06/05 04:26:40;;;;;;;2.80;2.60;;;;;;;21.72;62.34;100583.22;2082013;28;20053;-53
2021/06/05 04:27:41;;;;;;;3.17;2.87;;;;;;;21.72;62.14;100577.72;2080217;28;20025;-53
2021/06/05 04:28:42;;;;;;;3.23;2.80;;;;;;;21.73;62.23;100579.47;2081971;28;20025;-53
2021/06/05 04:29:42;;;;;;;2.50;2.30;;;;;;;21.72;61.98;100577.72;2081639;28;20368;-53
2021/06/05 04:30:44;;;;;;;3.30;2.97;;;;;;;21.73;62.03;100584.06;2072685;28;20025;-52
2021/06/05 04:31:45;;;;;;;3.17;2.55;;;;;;;21.73;62.28;100584.06;2069784;28;20033;-53
2021/06/05 04:32:46;;;;;;;3.50;2.95;;;;;;;21.73;62.16;100584.06;2081495;28;20035;-53
2021/06/05 04:33:46;;;;;;;4.00;3.07;;;;;;;21.72;62.31;100577.72;2081814;28;20017;-53
2021/06/05 04:34:46;;;;;;;3.33;3.03;;;;;;;21.72;62.08;100583.22;2081059;28;20037;-53
2021/06/05 04:35:47;;;;;;;3.90;2.97;;;;;;;21.73;62.20;100590.44;2080766;28;20028;-51
2021/06/05 04:36:52;;;;;;;3.00;2.53;;;;;;;21.73;62.23;100579.47;2081136;28;20483;-52
2021/06/05 04:37:53;;;;;;;3.35;3.03;;;;;;;21.72;62.09;100588.72;2078633;28;20037;-50
2021/06/05 04:38:53;;;;;;;2.60;2.40;;;;;;;21.72;62.05;100588.72;2081353;28;20014;-51
2021/06/05 04:39:54;;;;;;;3.20;2.80;;;;;;;21.72;61.91;100591.44;2080629;28;20028;-53
2021/06/05 04:40:54;;;;;;;3.30;2.77;;;;;;;21.72;62.20;100599.69;2081290;28;20056;-53
2021/06/05 04:41:55;;;;;;;4.50;2.80;;;;;;;21.71;62.26;100592.47;2078668;28;20049;-52
2021/06/05 04:42:56;;;;;;;3.37;2.70;;;;;;;21.71;62.08;100592.47;2086456;28;20036;-53
2021/06/05 04:43:56;;;;;;;3.00;2.70;;;;;;;21.71;62.09;100597.97;2081599;28;20033;-53
2021/06/05 04:44:57;;;;;;;3.17;2.87;;;;;;;21.72;62.06;100605.16;2081407;28;20033;-53
2021/06/05 04:45:59;;;;;;;3.13;2.83;;;;;;;21.72;62.17;100598.81;2081612;28;20025;-52
2021/06/05 04:47:00;;;;;;;3.60;2.40;;;;;;;21.71;62.29;100611.69;2081473;28;20900;-52
2021/06/05 04:48:01;;;;;;;3.70;3.00;;;;;;;21.73;62.17;100608.78;2081556;28;20060;-53
2021/06/05 04:49:01;;;;;;;3.40;3.03;;;;;;;21.72;62.10;100610.66;2080892;28;20025;-53
2021/06/05 04:50:04;;;;;;;3.37;2.93;;;;;;;21.72;62.23;100610.66;2079287;28;20029;-53
2021/06/05 04:51:05;;;;;;;3.10;2.78;;;;;;;21.71;62.14;100614.44;2073664;28;20113;-52
2021/06/05 04:52:06;;;;;;;3.20;2.72;;;;;;;21.71;62.37;100614.44;2078666;28;20079;-51
2021/06/05 04:53:07;;;;;;;2.67;2.43;;;;;;;21.71;62.15;100617.19;2085563;28;20084;-53
2021/06/05 04:54:08;;;;;;;3.13;2.83;;;;;;;21.71;62.16;100614.44;2081350;28;20083;-51
2021/06/05 04:55:10;;;;;;;3.17;2.70;;;;;;;21.72;61.96;100620.78;2080141;28;20155;-52